sensor_id;sensor_type;location;lat;lon;timestamp;P1;durP1;ratioP1;P2;durP2;ratioP2
49041;SDS011;34859;51.608;11.462;2022-09-09T00:04:37;2.42;;;1.38;;
49041;SDS011;34859;51.608;11.462;2022-09-09T00:07:28;1.75;;;1.65;;
49041;SDS011;34859;51.608;11.462;2022-09-09T00:10:40;4.55;;;2.13;;
49041;SDS011;34859;51.608;11.462;2022-09-09T00:13:28;3.35;;;1.70;;
49041;SDS011;34859;51.608;11.462;2022-09-09T00:16:27;2.45;;;2.05;;
49041;SDS011;34859;51.608;11.462;2022-09-09T00:25:19;2.67;;;1.85;;
49041;SDS011;34859;51.608;11.462;2022-09-09T00:28:18;6.25;;;2.20;;
49041;SDS011;34859;51.608;11.462;2022-09-09T00:31:13;2.03;;;1.50;;
49041;SDS011;34859;51.608;11.462;2022-09-09T00:37:01;2.03;;;1.17;;
49041;SDS011;34859;51.608;11.462;2022-09-09T00:39:47;4.45;;;1.70;;
49041;SDS011;34859;51.608;11.462;2022-09-09T00:42:37;1.60;;;1.23;;
49041;SDS011;34859;51.608;11.462;2022-09-09T00:52:03;3.85;;;1.33;;
49041;SDS011;34859;51.608;11.462;2022-09-09T00:55:03;1.92;;;1.20;;
49041;SDS011;34859;51.608;11.462;2022-09-09T00:57:52;1.47;;;1.37;;
49041;SDS011;34859;51.608;11.462;2022-09-09T01:00:35;1.85;;;1.60;;
49041;SDS011;34859;51.608;11.462;2022-09-09T01:03:35;2.33;;;1.15;;
49041;SDS011;34859;51.608;11.462;2022-09-09T01:06:42;1.50;;;1.40;;
49041;SDS011;34859;51.608;11.462;2022-09-09T01:09:32;2.42;;;1.27;;
49041;SDS011;34859;51.608;11.462;2022-09-09T01:12:40;5.55;;;1.40;;
49041;SDS011;34859;51.608;11.462;2022-09-09T01:15:27;3.88;;;1.10;;
49041;SDS011;34859;51.608;11.462;2022-09-09T01:18:15;2.55;;;0.98;;
49041;SDS011;34859;51.608;11.462;2022-09-09T01:21:09;2.63;;;0.93;;
49041;SDS011;34859;51.608;11.462;2022-09-09T01:27:01;2.05;;;1.33;;
49041;SDS011;34859;51.608;11.462;2022-09-09T01:29:47;0.80;;;0.80;;
49041;SDS011;34859;51.608;11.462;2022-09-09T01:32:42;2.13;;;1.38;;
49041;SDS011;34859;51.608;11.462;2022-09-09T01:38:34;2.25;;;1.02;;
49041;SDS011;34859;51.608;11.462;2022-09-09T01:41:19;1.40;;;0.88;;
49041;SDS011;34859;51.608;11.462;2022-09-09T01:44:05;2.00;;;1.00;;
49041;SDS011;34859;51.608;11.462;2022-09-09T01:46:51;6.97;;;1.13;;
49041;SDS011;34859;51.608;11.462;2022-09-09T01:49:35;1.27;;;1.17;;
49041;SDS011;34859;51.608;11.462;2022-09-09T01:52:19;3.42;;;1.30;;
49041;SDS011;34859;51.608;11.462;2022-09-09T01:55:04;3.58;;;1.05;;
49041;SDS011;34859;51.608;11.462;2022-09-09T01:57:54;2.38;;;1.40;;
49041;SDS011;34859;51.608;11.462;2022-09-09T02:01:10;4.70;;;1.40;;
49041;SDS011;34859;51.608;11.462;2022-09-09T02:13:12;3.63;;;1.30;;
49041;SDS011;34859;51.608;11.462;2022-09-09T02:16:03;2.03;;;0.80;;
49041;SDS011;34859;51.608;11.462;2022-09-09T02:19:16;1.77;;;1.20;;
49041;SDS011;34859;51.608;11.462;2022-09-09T02:22:09;1.65;;;1.30;;
49041;SDS011;34859;51.608;11.462;2022-09-09T02:24:54;1.83;;;1.42;;
49041;SDS011;34859;51.608;11.462;2022-09-09T02:27:42;3.67;;;1.02;;
49041;SDS011;34859;51.608;11.462;2022-09-09T02:30:29;2.90;;;1.20;;
49041;SDS011;34859;51.608;11.462;2022-09-09T02:33:17;3.72;;;1.40;;
49041;SDS011;34859;51.608;11.462;2022-09-09T02:36:03;1.83;;;1.48;;
49041;SDS011;34859;51.608;11.462;2022-09-09T02:38:47;2.85;;;1.65;;
49041;SDS011;34859;51.608;11.462;2022-09-09T02:41:38;5.60;;;1.85;;
49041;SDS011;34859;51.608;11.462;2022-09-09T02:44:24;2.17;;;1.50;;
49041;SDS011;34859;51.608;11.462;2022-09-09T02:50:04;2.50;;;1.10;;
49041;SDS011;34859;51.608;11.462;2022-09-09T02:53:02;1.58;;;1.48;;
49041;SDS011;34859;51.608;11.462;2022-09-09T02:55:56;3.55;;;1.40;;
49041;SDS011;34859;51.608;11.462;2022-09-09T02:58:44;3.80;;;1.52;;
49041;SDS011;34859;51.608;11.462;2022-09-09T03:04:14;1.45;;;1.35;;
49041;SDS011;34859;51.608;11.462;2022-09-09T03:06:58;1.88;;;1.40;;
49041;SDS011;34859;51.608;11.462;2022-09-09T03:09:43;2.67;;;1.08;;
49041;SDS011;34859;51.608;11.462;2022-09-09T03:12:25;2.67;;;1.30;;
49041;SDS011;34859;51.608;11.462;2022-09-09T03:15:09;1.73;;;1.10;;
49041;SDS011;34859;51.608;11.462;2022-09-09T03:17:54;2.45;;;1.60;;
49041;SDS011;34859;51.608;11.462;2022-09-09T03:20:41;1.90;;;1.30;;
49041;SDS011;34859;51.608;11.462;2022-09-09T03:23:26;5.28;;;1.38;;
49041;SDS011;34859;51.608;11.462;2022-09-09T03:26:10;3.23;;;1.57;;
49041;SDS011;34859;51.608;11.462;2022-09-09T03:28:54;5.88;;;1.75;;
49041;SDS011;34859;51.608;11.462;2022-09-09T03:31:39;4.00;;;1.10;;
49041;SDS011;34859;51.608;11.462;2022-09-09T03:34:23;2.17;;;1.48;;
49041;SDS011;34859;51.608;11.462;2022-09-09T03:37:07;9.17;;;1.50;;
49041;SDS011;34859;51.608;11.462;2022-09-09T03:39:51;3.25;;;1.25;;
49041;SDS011;34859;51.608;11.462;2022-09-09T03:42:38;1.85;;;1.15;;
49041;SDS011;34859;51.608;11.462;2022-09-09T03:48:07;2.70;;;1.30;;
49041;SDS011;34859;51.608;11.462;2022-09-09T03:50:55;2.03;;;1.08;;
49041;SDS011;34859;51.608;11.462;2022-09-09T03:53:44;2.45;;;1.13;;
49041;SDS011;34859;51.608;11.462;2022-09-09T03:56:28;3.13;;;1.00;;
49041;SDS011;34859;51.608;11.462;2022-09-09T03:59:12;6.20;;;1.25;;
49041;SDS011;34859;51.608;11.462;2022-09-09T04:01:57;6.65;;;1.15;;
49041;SDS011;34859;51.608;11.462;2022-09-09T04:07:26;0.93;;;0.93;;
49041;SDS011;34859;51.608;11.462;2022-09-09T04:12:56;3.00;;;1.08;;
49041;SDS011;34859;51.608;11.462;2022-09-09T04:15:40;5.18;;;1.25;;
49041;SDS011;34859;51.608;11.462;2022-09-09T04:18:25;3.28;;;1.10;;
49041;SDS011;34859;51.608;11.462;2022-09-09T04:21:09;2.45;;;1.13;;
49041;SDS011;34859;51.608;11.462;2022-09-09T04:23:54;4.55;;;1.50;;
49041;SDS011;34859;51.608;11.462;2022-09-09T04:26:38;2.53;;;1.10;;
49041;SDS011;34859;51.608;11.462;2022-09-09T04:29:22;3.65;;;1.00;;
49041;SDS011;34859;51.608;11.462;2022-09-09T04:32:06;2.88;;;1.10;;
49041;SDS011;34859;51.608;11.462;2022-09-09T04:34:50;1.30;;;0.90;;
49041;SDS011;34859;51.608;11.462;2022-09-09T04:37:34;1.88;;;1.63;;
49041;SDS011;34859;51.608;11.462;2022-09-09T04:40:18;1.73;;;0.83;;
49041;SDS011;34859;51.608;11.462;2022-09-09T04:43:02;2.50;;;1.00;;
49041;SDS011;34859;51.608;11.462;2022-09-09T04:45:48;1.42;;;1.15;;
49041;SDS011;34859;51.608;11.462;2022-09-09T04:48:37;2.28;;;1.23;;
49041;SDS011;34859;51.608;11.462;2022-09-09T04:54:06;2.38;;;1.40;;
49041;SDS011;34859;51.608;11.462;2022-09-09T04:56:50;1.52;;;1.05;;
49041;SDS011;34859;51.608;11.462;2022-09-09T04:59:34;3.45;;;1.02;;
49041;SDS011;34859;51.608;11.462;2022-09-09T05:02:18;9.43;;;1.35;;
49041;SDS011;34859;51.608;11.462;2022-09-09T05:05:02;3.50;;;1.27;;
49041;SDS011;34859;51.608;11.462;2022-09-09T05:07:47;4.57;;;1.25;;
49041;SDS011;34859;51.608;11.462;2022-09-09T05:10:32;6.13;;;1.40;;
49041;SDS011;34859;51.608;11.462;2022-09-09T05:13:17;1.38;;;1.20;;
49041;SDS011;34859;51.608;11.462;2022-09-09T05:16:01;2.47;;;1.50;;
49041;SDS011;34859;51.608;11.462;2022-09-09T05:18:45;2.10;;;1.20;;
49041;SDS011;34859;51.608;11.462;2022-09-09T05:24:14;2.90;;;1.13;;
49041;SDS011;34859;51.608;11.462;2022-09-09T05:26:59;1.92;;;1.55;;
49041;SDS011;34859;51.608;11.462;2022-09-09T05:29:46;6.55;;;1.20;;
49041;SDS011;34859;51.608;11.462;2022-09-09T05:32:30;3.65;;;1.23;;
49041;SDS011;34859;51.608;11.462;2022-09-09T05:35:17;5.70;;;1.73;;
49041;SDS011;34859;51.608;11.462;2022-09-09T05:38:02;3.35;;;1.30;;
49041;SDS011;34859;51.608;11.462;2022-09-09T05:40:47;2.27;;;1.10;;
49041;SDS011;34859;51.608;11.462;2022-09-09T05:43:31;3.97;;;1.23;;
49041;SDS011;34859;51.608;11.462;2022-09-09T05:46:17;1.10;;;1.10;;
49041;SDS011;34859;51.608;11.462;2022-09-09T05:49:03;6.85;;;1.42;;
49041;SDS011;34859;51.608;11.462;2022-09-09T05:51:48;3.95;;;1.10;;
49041;SDS011;34859;51.608;11.462;2022-09-09T05:54:34;4.57;;;1.30;;
49041;SDS011;34859;51.608;11.462;2022-09-09T05:57:18;2.75;;;1.33;;
49041;SDS011;34859;51.608;11.462;2022-09-09T06:00:02;1.33;;;1.20;;
49041;SDS011;34859;51.608;11.462;2022-09-09T06:02:51;2.60;;;1.55;;
49041;SDS011;34859;51.608;11.462;2022-09-09T06:05:35;3.65;;;1.40;;
49041;SDS011;34859;51.608;11.462;2022-09-09T06:08:19;2.30;;;1.73;;
49041;SDS011;34859;51.608;11.462;2022-09-09T06:11:04;2.80;;;1.58;;
49041;SDS011;34859;51.608;11.462;2022-09-09T06:13:50;1.90;;;1.35;;
49041;SDS011;34859;51.608;11.462;2022-09-09T06:16:37;3.28;;;1.42;;
49041;SDS011;34859;51.608;11.462;2022-09-09T06:19:22;1.55;;;1.40;;
49041;SDS011;34859;51.608;11.462;2022-09-09T06:22:09;2.88;;;1.60;;
49041;SDS011;34859;51.608;11.462;2022-09-09T06:24:56;5.50;;;1.65;;
49041;SDS011;34859;51.608;11.462;2022-09-09T06:27:40;6.70;;;1.85;;
49041;SDS011;34859;51.608;11.462;2022-09-09T06:30:25;2.53;;;1.45;;
49041;SDS011;34859;51.608;11.462;2022-09-09T06:33:10;3.53;;;1.40;;
49041;SDS011;34859;51.608;11.462;2022-09-09T06:35:54;4.55;;;1.45;;
49041;SDS011;34859;51.608;11.462;2022-09-09T06:38:41;4.82;;;1.83;;
49041;SDS011;34859;51.608;11.462;2022-09-09T06:41:26;1.85;;;1.73;;
49041;SDS011;34859;51.608;11.462;2022-09-09T06:44:13;1.95;;;1.73;;
49041;SDS011;34859;51.608;11.462;2022-09-09T06:46:59;4.10;;;1.70;;
49041;SDS011;34859;51.608;11.462;2022-09-09T06:49:43;2.70;;;2.00;;
49041;SDS011;34859;51.608;11.462;2022-09-09T06:52:27;1.80;;;1.40;;
49041;SDS011;34859;51.608;11.462;2022-09-09T06:55:11;3.10;;;1.80;;
49041;SDS011;34859;51.608;11.462;2022-09-09T06:57:56;4.40;;;1.80;;
49041;SDS011;34859;51.608;11.462;2022-09-09T07:03:26;1.75;;;1.65;;
49041;SDS011;34859;51.608;11.462;2022-09-09T07:06:20;4.43;;;2.03;;
49041;SDS011;34859;51.608;11.462;2022-09-09T07:09:13;2.22;;;2.05;;
49041;SDS011;34859;51.608;11.462;2022-09-09T07:11:59;3.22;;;1.85;;
49041;SDS011;34859;51.608;11.462;2022-09-09T07:14:44;3.42;;;1.83;;
49041;SDS011;34859;51.608;11.462;2022-09-09T07:17:28;7.20;;;1.83;;
49041;SDS011;34859;51.608;11.462;2022-09-09T07:20:13;1.50;;;1.35;;
49041;SDS011;34859;51.608;11.462;2022-09-09T07:22:58;7.30;;;1.50;;
49041;SDS011;34859;51.608;11.462;2022-09-09T07:25:45;2.80;;;1.67;;
49041;SDS011;34859;51.608;11.462;2022-09-09T07:28:31;5.18;;;1.98;;
49041;SDS011;34859;51.608;11.462;2022-09-09T07:31:19;4.18;;;1.52;;
49041;SDS011;34859;51.608;11.462;2022-09-09T07:34:05;2.88;;;1.20;;
49041;SDS011;34859;51.608;11.462;2022-09-09T07:36:49;2.38;;;1.13;;
49041;SDS011;34859;51.608;11.462;2022-09-09T07:39:33;2.45;;;0.93;;
49041;SDS011;34859;51.608;11.462;2022-09-09T07:42:17;2.00;;;1.27;;
49041;SDS011;34859;51.608;11.462;2022-09-09T07:45:01;4.87;;;1.13;;
49041;SDS011;34859;51.608;11.462;2022-09-09T07:47:45;9.87;;;1.23;;
49041;SDS011;34859;51.608;11.462;2022-09-09T07:50:30;2.13;;;0.73;;
49041;SDS011;34859;51.608;11.462;2022-09-09T07:53:14;4.60;;;1.15;;
49041;SDS011;34859;51.608;11.462;2022-09-09T07:56:02;3.58;;;0.85;;
49041;SDS011;34859;51.608;11.462;2022-09-09T07:58:50;3.25;;;0.82;;
49041;SDS011;34859;51.608;11.462;2022-09-09T08:01:37;3.90;;;1.15;;
49041;SDS011;34859;51.608;11.462;2022-09-09T08:04:24;2.97;;;1.30;;
49041;SDS011;34859;51.608;11.462;2022-09-09T08:07:09;1.73;;;0.98;;
49041;SDS011;34859;51.608;11.462;2022-09-09T08:09:54;2.65;;;1.00;;
49041;SDS011;34859;51.608;11.462;2022-09-09T08:15:23;3.65;;;0.88;;
49041;SDS011;34859;51.608;11.462;2022-09-09T08:18:07;4.30;;;1.50;;
49041;SDS011;34859;51.608;11.462;2022-09-09T08:23:37;2.58;;;1.20;;
49041;SDS011;34859;51.608;11.462;2022-09-09T08:26:24;5.55;;;1.00;;
49041;SDS011;34859;51.608;11.462;2022-09-09T08:29:13;3.60;;;0.90;;
49041;SDS011;34859;51.608;11.462;2022-09-09T08:31:57;4.82;;;0.80;;
49041;SDS011;34859;51.608;11.462;2022-09-09T08:34:43;5.22;;;1.40;;
49041;SDS011;34859;51.608;11.462;2022-09-09T08:37:27;2.10;;;0.77;;
49041;SDS011;34859;51.608;11.462;2022-09-09T08:40:16;6.40;;;1.10;;
49041;SDS011;34859;51.608;11.462;2022-09-09T08:43:06;4.30;;;0.80;;
49041;SDS011;34859;51.608;11.462;2022-09-09T08:46:14;1.83;;;1.10;;
49041;SDS011;34859;51.608;11.462;2022-09-09T08:52:02;3.20;;;0.90;;
49041;SDS011;34859;51.608;11.462;2022-09-09T08:54:50;2.08;;;1.13;;
49041;SDS011;34859;51.608;11.462;2022-09-09T08:57:35;3.92;;;1.25;;
49041;SDS011;34859;51.608;11.462;2022-09-09T09:00:20;4.68;;;1.33;;
49041;SDS011;34859;51.608;11.462;2022-09-09T09:06:27;4.82;;;0.98;;
49041;SDS011;34859;51.608;11.462;2022-09-09T09:09:26;3.93;;;1.00;;
49041;SDS011;34859;51.608;11.462;2022-09-09T09:12:43;2.28;;;0.85;;
49041;SDS011;34859;51.608;11.462;2022-09-09T09:15:35;2.30;;;0.80;;
49041;SDS011;34859;51.608;11.462;2022-09-09T09:18:21;2.78;;;0.95;;
49041;SDS011;34859;51.608;11.462;2022-09-09T09:21:08;2.15;;;0.65;;
49041;SDS011;34859;51.608;11.462;2022-09-09T09:24:02;1.52;;;0.63;;
49041;SDS011;34859;51.608;11.462;2022-09-09T09:26:51;2.45;;;1.00;;
49041;SDS011;34859;51.608;11.462;2022-09-09T09:29:36;2.22;;;0.75;;
49041;SDS011;34859;51.608;11.462;2022-09-09T09:32:23;2.08;;;0.82;;
49041;SDS011;34859;51.608;11.462;2022-09-09T09:35:11;2.65;;;0.88;;
49041;SDS011;34859;51.608;11.462;2022-09-09T09:37:56;4.15;;;1.00;;
49041;SDS011;34859;51.608;11.462;2022-09-09T09:40:48;3.60;;;0.95;;
49041;SDS011;34859;51.608;11.462;2022-09-09T09:43:35;3.30;;;0.93;;
49041;SDS011;34859;51.608;11.462;2022-09-09T09:46:21;1.58;;;0.70;;
49041;SDS011;34859;51.608;11.462;2022-09-09T09:49:10;4.07;;;0.90;;
49041;SDS011;34859;51.608;11.462;2022-09-09T09:51:54;3.50;;;0.60;;
49041;SDS011;34859;51.608;11.462;2022-09-09T09:54:45;6.15;;;1.10;;
49041;SDS011;34859;51.608;11.462;2022-09-09T09:57:30;4.15;;;0.98;;
49041;SDS011;34859;51.608;11.462;2022-09-09T10:00:16;1.17;;;0.52;;
49041;SDS011;34859;51.608;11.462;2022-09-09T10:03:12;6.32;;;1.08;;
49041;SDS011;34859;51.608;11.462;2022-09-09T10:06:03;3.03;;;0.88;;
49041;SDS011;34859;51.608;11.462;2022-09-09T10:08:48;4.68;;;0.85;;
49041;SDS011;34859;51.608;11.462;2022-09-09T10:14:26;4.68;;;0.80;;
49041;SDS011;34859;51.608;11.462;2022-09-09T10:26:26;5.13;;;0.90;;
49041;SDS011;34859;51.608;11.462;2022-09-09T10:32:49;2.97;;;0.75;;
49041;SDS011;34859;51.608;11.462;2022-09-09T10:35:52;2.67;;;0.98;;
49041;SDS011;34859;51.608;11.462;2022-09-09T10:38:46;3.47;;;0.70;;
49041;SDS011;34859;51.608;11.462;2022-09-09T10:44:20;7.68;;;1.17;;
49041;SDS011;34859;51.608;11.462;2022-09-09T10:55:48;2.22;;;0.60;;
49041;SDS011;34859;51.608;11.462;2022-09-09T10:58:56;4.20;;;0.88;;
49041;SDS011;34859;51.608;11.462;2022-09-09T11:01:47;3.90;;;0.98;;
49041;SDS011;34859;51.608;11.462;2022-09-09T11:04:49;3.50;;;0.80;;
49041;SDS011;34859;51.608;11.462;2022-09-09T11:07:40;2.40;;;0.80;;
49041;SDS011;34859;51.608;11.462;2022-09-09T11:13:18;2.55;;;0.90;;
49041;SDS011;34859;51.608;11.462;2022-09-09T11:16:22;2.42;;;0.70;;
49041;SDS011;34859;51.608;11.462;2022-09-09T11:22:34;4.63;;;1.13;;
49041;SDS011;34859;51.608;11.462;2022-09-09T11:37:34;3.10;;;0.80;;
49041;SDS011;34859;51.608;11.462;2022-09-09T11:40:39;5.75;;;0.75;;
49041;SDS011;34859;51.608;11.462;2022-09-09T11:43:30;3.10;;;0.95;;
49041;SDS011;34859;51.608;11.462;2022-09-09T11:46:23;3.08;;;0.63;;
49041;SDS011;34859;51.608;11.462;2022-09-09T11:49:40;2.15;;;0.95;;
49041;SDS011;34859;51.608;11.462;2022-09-09T11:52:35;3.25;;;0.82;;
49041;SDS011;34859;51.608;11.462;2022-09-09T11:55:31;1.77;;;0.70;;
49041;SDS011;34859;51.608;11.462;2022-09-09T11:58:17;2.50;;;0.60;;
49041;SDS011;34859;51.608;11.462;2022-09-09T12:01:02;1.33;;;0.47;;
49041;SDS011;34859;51.608;11.462;2022-09-09T12:10:20;1.05;;;0.38;;
49041;SDS011;34859;51.608;11.462;2022-09-09T12:13:22;0.80;;;0.50;;
49041;SDS011;34859;51.608;11.462;2022-09-09T12:16:27;5.65;;;0.80;;
49041;SDS011;34859;51.608;11.462;2022-09-09T12:19:20;2.58;;;0.63;;
49041;SDS011;34859;51.608;11.462;2022-09-09T12:25:16;3.47;;;0.55;;
49041;SDS011;34859;51.608;11.462;2022-09-09T12:28:09;2.65;;;0.60;;
49041;SDS011;34859;51.608;11.462;2022-09-09T12:40:37;2.95;;;0.60;;
49041;SDS011;34859;51.608;11.462;2022-09-09T12:43:23;2.38;;;0.60;;
49041;SDS011;34859;51.608;11.462;2022-09-09T12:46:10;1.15;;;0.40;;
49041;SDS011;34859;51.608;11.462;2022-09-09T12:52:29;2.03;;;0.68;;
49041;SDS011;34859;51.608;11.462;2022-09-09T12:55:20;1.58;;;0.57;;
49041;SDS011;34859;51.608;11.462;2022-09-09T12:58:11;3.03;;;0.43;;
49041;SDS011;34859;51.608;11.462;2022-09-09T13:01:01;1.70;;;0.60;;
49041;SDS011;34859;51.608;11.462;2022-09-09T13:03:48;1.58;;;0.43;;
49041;SDS011;34859;51.608;11.462;2022-09-09T13:09:18;1.90;;;0.40;;
49041;SDS011;34859;51.608;11.462;2022-09-09T13:12:03;1.60;;;0.50;;
49041;SDS011;34859;51.608;11.462;2022-09-09T13:14:51;2.38;;;0.40;;
49041;SDS011;34859;51.608;11.462;2022-09-09T13:17:39;1.85;;;0.50;;
49041;SDS011;34859;51.608;11.462;2022-09-09T13:20:24;2.67;;;0.40;;
49041;SDS011;34859;51.608;11.462;2022-09-09T13:23:09;2.42;;;0.50;;
49041;SDS011;34859;51.608;11.462;2022-09-09T13:25:56;2.95;;;0.70;;
49041;SDS011;34859;51.608;11.462;2022-09-09T13:28:44;2.75;;;0.60;;
49041;SDS011;34859;51.608;11.462;2022-09-09T13:37:19;0.95;;;0.45;;
49041;SDS011;34859;51.608;11.462;2022-09-09T13:40:16;2.75;;;0.60;;
49041;SDS011;34859;51.608;11.462;2022-09-09T13:43:03;3.38;;;0.73;;
49041;SDS011;34859;51.608;11.462;2022-09-09T13:45:55;8.80;;;0.57;;
49041;SDS011;34859;51.608;11.462;2022-09-09T13:48:41;2.25;;;0.65;;
49041;SDS011;34859;51.608;11.462;2022-09-09T13:51:35;1.47;;;0.60;;
49041;SDS011;34859;51.608;11.462;2022-09-09T13:54:23;1.90;;;0.52;;
49041;SDS011;34859;51.608;11.462;2022-09-09T13:57:14;2.03;;;0.60;;
49041;SDS011;34859;51.608;11.462;2022-09-09T14:00:03;2.45;;;0.68;;
49041;SDS011;34859;51.608;11.462;2022-09-09T14:02:50;4.97;;;0.75;;
49041;SDS011;34859;51.608;11.462;2022-09-09T14:05:34;1.83;;;0.63;;
49041;SDS011;34859;51.608;11.462;2022-09-09T14:08:20;5.30;;;0.70;;
49041;SDS011;34859;51.608;11.462;2022-09-09T14:11:08;1.98;;;0.60;;
49041;SDS011;34859;51.608;11.462;2022-09-09T14:13:53;2.95;;;0.70;;
49041;SDS011;34859;51.608;11.462;2022-09-09T14:16:37;2.60;;;0.50;;
49041;SDS011;34859;51.608;11.462;2022-09-09T14:19:21;1.42;;;0.50;;
49041;SDS011;34859;51.608;11.462;2022-09-09T14:22:05;3.67;;;0.55;;
49041;SDS011;34859;51.608;11.462;2022-09-09T14:24:50;1.88;;;0.90;;
49041;SDS011;34859;51.608;11.462;2022-09-09T14:27:35;4.57;;;0.77;;
49041;SDS011;34859;51.608;11.462;2022-09-09T14:30:19;2.20;;;0.70;;
49041;SDS011;34859;51.608;11.462;2022-09-09T14:33:03;3.27;;;0.60;;
49041;SDS011;34859;51.608;11.462;2022-09-09T14:35:47;2.33;;;0.77;;
49041;SDS011;34859;51.608;11.462;2022-09-09T14:38:32;2.30;;;0.88;;
49041;SDS011;34859;51.608;11.462;2022-09-09T14:41:23;2.78;;;0.95;;
49041;SDS011;34859;51.608;11.462;2022-09-09T14:44:07;1.60;;;0.52;;
49041;SDS011;34859;51.608;11.462;2022-09-09T14:49:36;5.87;;;0.60;;
49041;SDS011;34859;51.608;11.462;2022-09-09T14:52:21;2.72;;;0.75;;
49041;SDS011;34859;51.608;11.462;2022-09-09T14:55:05;1.70;;;0.50;;
49041;SDS011;34859;51.608;11.462;2022-09-09T14:57:50;4.07;;;0.70;;
49041;SDS011;34859;51.608;11.462;2022-09-09T15:00:34;2.40;;;0.70;;
49041;SDS011;34859;51.608;11.462;2022-09-09T15:06:06;0.90;;;0.40;;
49041;SDS011;34859;51.608;11.462;2022-09-09T15:08:52;4.65;;;0.80;;
49041;SDS011;34859;51.608;11.462;2022-09-09T15:11:37;1.65;;;0.43;;
49041;SDS011;34859;51.608;11.462;2022-09-09T15:14:22;3.38;;;0.50;;
49041;SDS011;34859;51.608;11.462;2022-09-09T15:17:06;3.67;;;0.67;;
49041;SDS011;34859;51.608;11.462;2022-09-09T15:19:50;0.93;;;0.60;;
49041;SDS011;34859;51.608;11.462;2022-09-09T15:22:34;2.20;;;0.38;;
49041;SDS011;34859;51.608;11.462;2022-09-09T15:25:20;1.92;;;0.35;;
49041;SDS011;34859;51.608;11.462;2022-09-09T15:30:50;1.08;;;0.30;;
49041;SDS011;34859;51.608;11.462;2022-09-09T15:33:35;1.50;;;0.50;;
49041;SDS011;34859;51.608;11.462;2022-09-09T15:36:21;1.63;;;0.60;;
49041;SDS011;34859;51.608;11.462;2022-09-09T15:39:08;2.33;;;0.68;;
49041;SDS011;34859;51.608;11.462;2022-09-09T15:41:56;1.50;;;0.40;;
49041;SDS011;34859;51.608;11.462;2022-09-09T15:44:41;0.88;;;0.30;;
49041;SDS011;34859;51.608;11.462;2022-09-09T15:47:25;1.80;;;0.70;;
49041;SDS011;34859;51.608;11.462;2022-09-09T15:52:55;1.80;;;0.70;;
49041;SDS011;34859;51.608;11.462;2022-09-09T15:55:39;2.70;;;0.43;;
49041;SDS011;34859;51.608;11.462;2022-09-09T15:58:23;1.70;;;0.33;;
49041;SDS011;34859;51.608;11.462;2022-09-09T16:01:08;1.58;;;0.35;;
49041;SDS011;34859;51.608;11.462;2022-09-09T16:03:54;2.85;;;0.45;;
49041;SDS011;34859;51.608;11.462;2022-09-09T16:06:36;1.05;;;0.40;;
49041;SDS011;34859;51.608;11.462;2022-09-09T16:09:20;1.17;;;0.50;;
49041;SDS011;34859;51.608;11.462;2022-09-09T16:12:04;2.28;;;0.77;;
49041;SDS011;34859;51.608;11.462;2022-09-09T16:14:53;1.83;;;0.45;;
49041;SDS011;34859;51.608;11.462;2022-09-09T16:17:38;2.30;;;0.40;;
49041;SDS011;34859;51.608;11.462;2022-09-09T16:20:22;1.30;;;0.50;;
49041;SDS011;34859;51.608;11.462;2022-09-09T16:23:07;1.65;;;0.40;;
49041;SDS011;34859;51.608;11.462;2022-09-09T16:25:54;1.13;;;0.57;;
49041;SDS011;34859;51.608;11.462;2022-09-09T16:28:38;3.47;;;0.40;;
49041;SDS011;34859;51.608;11.462;2022-09-09T16:31:23;1.42;;;0.60;;
49041;SDS011;34859;51.608;11.462;2022-09-09T16:34:08;0.60;;;0.40;;
49041;SDS011;34859;51.608;11.462;2022-09-09T16:39:37;0.77;;;0.30;;
49041;SDS011;34859;51.608;11.462;2022-09-09T16:42:21;1.38;;;0.57;;
49041;SDS011;34859;51.608;11.462;2022-09-09T16:45:05;2.23;;;0.30;;
49041;SDS011;34859;51.608;11.462;2022-09-09T16:47:50;1.38;;;0.40;;
49041;SDS011;34859;51.608;11.462;2022-09-09T16:50:34;0.68;;;0.28;;
49041;SDS011;34859;51.608;11.462;2022-09-09T16:53:18;1.03;;;0.50;;
49041;SDS011;34859;51.608;11.462;2022-09-09T16:56:09;1.05;;;0.38;;
49041;SDS011;34859;51.608;11.462;2022-09-09T16:58:56;3.15;;;0.57;;
49041;SDS011;34859;51.608;11.462;2022-09-09T17:01:42;2.25;;;0.40;;
49041;SDS011;34859;51.608;11.462;2022-09-09T17:04:27;1.90;;;0.40;;
49041;SDS011;34859;51.608;11.462;2022-09-09T17:07:11;2.50;;;0.30;;
49041;SDS011;34859;51.608;11.462;2022-09-09T17:09:55;1.97;;;0.40;;
49041;SDS011;34859;51.608;11.462;2022-09-09T17:12:40;0.80;;;0.40;;
49041;SDS011;34859;51.608;11.462;2022-09-09T17:15:24;1.23;;;0.30;;
49041;SDS011;34859;51.608;11.462;2022-09-09T17:18:09;0.73;;;0.30;;
49041;SDS011;34859;51.608;11.462;2022-09-09T17:20:54;1.85;;;0.40;;
49041;SDS011;34859;51.608;11.462;2022-09-09T17:23:38;2.27;;;0.83;;
49041;SDS011;34859;51.608;11.462;2022-09-09T17:26:24;2.30;;;0.80;;
49041;SDS011;34859;51.608;11.462;2022-09-09T17:29:10;1.55;;;0.52;;
49041;SDS011;34859;51.608;11.462;2022-09-09T17:31:52;1.08;;;0.45;;
49041;SDS011;34859;51.608;11.462;2022-09-09T17:34:38;2.05;;;0.50;;
49041;SDS011;34859;51.608;11.462;2022-09-09T17:37:22;1.80;;;0.57;;
49041;SDS011;34859;51.608;11.462;2022-09-09T17:40:06;1.70;;;0.53;;
49041;SDS011;34859;51.608;11.462;2022-09-09T17:42:52;2.28;;;0.57;;
49041;SDS011;34859;51.608;11.462;2022-09-09T17:45:36;1.08;;;0.57;;
49041;SDS011;34859;51.608;11.462;2022-09-09T17:48:20;1.53;;;1.10;;
49041;SDS011;34859;51.608;11.462;2022-09-09T17:51:06;2.07;;;0.80;;
49041;SDS011;34859;51.608;11.462;2022-09-09T17:53:52;0.93;;;0.30;;
49041;SDS011;34859;51.608;11.462;2022-09-09T17:56:38;1.25;;;0.50;;
49041;SDS011;34859;51.608;11.462;2022-09-09T17:59:23;1.80;;;0.55;;
49041;SDS011;34859;51.608;11.462;2022-09-09T18:02:09;0.95;;;0.45;;
49041;SDS011;34859;51.608;11.462;2022-09-09T18:04:55;2.45;;;0.68;;
49041;SDS011;34859;51.608;11.462;2022-09-09T18:07:39;1.67;;;0.60;;
49041;SDS011;34859;51.608;11.462;2022-09-09T18:10:24;1.73;;;0.60;;
49041;SDS011;34859;51.608;11.462;2022-09-09T18:13:08;2.17;;;0.40;;
49041;SDS011;34859;51.608;11.462;2022-09-09T18:15:52;3.85;;;1.15;;
49041;SDS011;34859;51.608;11.462;2022-09-09T18:18:37;2.05;;;0.70;;
49041;SDS011;34859;51.608;11.462;2022-09-09T18:21:21;3.33;;;0.85;;
49041;SDS011;34859;51.608;11.462;2022-09-09T18:26:51;2.80;;;0.70;;
49041;SDS011;34859;51.608;11.462;2022-09-09T18:29:35;1.33;;;0.67;;
49041;SDS011;34859;51.608;11.462;2022-09-09T18:32:19;3.13;;;0.80;;
49041;SDS011;34859;51.608;11.462;2022-09-09T18:35:03;3.40;;;1.10;;
49041;SDS011;34859;51.608;11.462;2022-09-09T18:37:48;3.65;;;0.63;;
49041;SDS011;34859;51.608;11.462;2022-09-09T18:40:32;3.05;;;1.15;;
49041;SDS011;34859;51.608;11.462;2022-09-09T18:43:13;3.22;;;1.48;;
49041;SDS011;34859;51.608;11.462;2022-09-09T18:48:46;0.98;;;0.55;;
49041;SDS011;34859;51.608;11.462;2022-09-09T18:51:32;0.90;;;0.47;;
49041;SDS011;34859;51.608;11.462;2022-09-09T18:54:20;3.22;;;0.57;;
49041;SDS011;34859;51.608;11.462;2022-09-09T18:57:07;1.73;;;0.55;;
49041;SDS011;34859;51.608;11.462;2022-09-09T18:59:51;3.88;;;0.63;;
49041;SDS011;34859;51.608;11.462;2022-09-09T19:02:38;2.88;;;0.80;;
49041;SDS011;34859;51.608;11.462;2022-09-09T19:05:22;2.47;;;0.70;;
49041;SDS011;34859;51.608;11.462;2022-09-09T19:08:06;2.17;;;0.85;;
49041;SDS011;34859;51.608;11.462;2022-09-09T19:10:50;3.33;;;0.60;;
49041;SDS011;34859;51.608;11.462;2022-09-09T19:13:35;1.63;;;0.38;;
49041;SDS011;34859;51.608;11.462;2022-09-09T19:16:21;3.65;;;0.57;;